createdAt,value
2017-08-26T00:00:26.207Z,100115.41
2017-08-26T00:02:58.506Z,100120.64
2017-08-26T00:05:24.577Z,100127.92
2017-08-26T00:07:50.675Z,100120.64
2017-08-26T00:10:16.780Z,100114.81
2017-08-26T00:12:42.835Z,100105.94
2017-08-26T00:15:08.897Z,100110.59
2017-08-26T00:17:34.980Z,100110.10
2017-08-26T00:20:01.064Z,100111.76
2017-08-26T00:22:27.125Z,100123.19
2017-08-26T00:24:53.206Z,100126.08
2017-08-26T00:27:19.263Z,100123.03
2017-08-26T00:29:45.371Z,100111.66
2017-08-26T00:32:11.455Z,100115.45
2017-08-26T00:34:37.587Z,100114.05
2017-08-26T00:37:03.661Z,100108.80
2017-08-26T00:39:29.730Z,100101.13
2017-08-26T00:41:55.790Z,100098.33
2017-08-26T00:44:22.019Z,100079.57
2017-08-26T00:46:48.090Z,100078.16
2017-08-26T00:49:14.185Z,100081.59
2017-08-26T00:51:40.280Z,100076.88
2017-08-26T00:54:06.339Z,100076.31
2017-08-26T00:56:32.421Z,100072.67
2017-08-26T00:58:58.507Z,100061.09
2017-08-26T01:01:24.639Z,100062.92
2017-08-26T01:03:50.744Z,100074.66
2017-08-26T01:06:16.858Z,100066.58
2017-08-26T01:08:42.961Z,100061.40
2017-08-26T01:11:09.055Z,100068.63
2017-08-26T01:13:35.104Z,100067.86
2017-08-26T01:16:01.187Z,100066.96
2017-08-26T01:18:27.263Z,100073.63
2017-08-26T01:20:53.337Z,100068.08
2017-08-26T01:23:19.409Z,100055.95
2017-08-26T01:25:45.483Z,100046.82
2017-08-26T01:28:11.578Z,100045.67
2017-08-26T01:30:37.674Z,100041.92
2017-08-26T01:33:03.767Z,100040.47
2017-08-26T01:35:29.844Z,100036.52
2017-08-26T01:37:56.383Z,100030.82
2017-08-26T01:40:22.485Z,100041.95
2017-08-26T01:42:48.641Z,100044.38
2017-08-26T01:45:14.770Z,100040.31
2017-08-26T01:47:40.871Z,100046.48
2017-08-26T01:50:06.942Z,100039.23
2017-08-26T01:52:33.021Z,100044.10
2017-08-26T01:54:59.111Z,100039.52
2017-08-26T01:57:25.194Z,100037.03
2017-08-26T01:59:51.261Z,100043.32
2017-08-26T02:02:17.337Z,100041.94
2017-08-26T02:04:43.427Z,100053.19
2017-08-26T02:07:09.499Z,100047.77
2017-08-26T02:09:35.592Z,100051.51
2017-08-26T02:12:01.675Z,100057.08
2017-08-26T02:14:27.769Z,100059.39
2017-08-26T02:16:53.890Z,100067.09
2017-08-26T02:19:19.994Z,100053.84
2017-08-26T02:21:46.083Z,100048.53
2017-08-26T02:24:12.168Z,100042.75
2017-08-26T02:26:38.259Z,100039.58
2017-08-26T02:29:04.331Z,100027.88
2017-08-26T02:31:30.437Z,100034.63
2017-08-26T02:33:56.533Z,100039.52
2017-08-26T02:36:22.620Z,100042.45
2017-08-26T02:38:48.756Z,100041.86
2017-08-26T02:41:14.860Z,100038.08
2017-08-26T02:43:40.922Z,100036.36
2017-08-26T02:46:07.046Z,100039.92
2017-08-26T02:48:33.125Z,100054.41
2017-08-26T02:50:59.238Z,100058.53
2017-08-26T02:53:25.326Z,100062.30
2017-08-26T02:55:51.414Z,100063.41
2017-08-26T02:58:17.564Z,100059.88
2017-08-26T03:00:43.652Z,100057.19
2017-08-26T03:03:09.719Z,100054.55
2017-08-26T03:05:35.820Z,100053.62
2017-08-26T03:08:01.914Z,100047.72
2017-08-26T03:10:28.002Z,100043.81
2017-08-26T03:12:54.106Z,100040.23
2017-08-26T03:15:20.188Z,100026.61
2017-08-26T03:17:46.273Z,100030.94
2017-08-26T03:20:12.366Z,100045.29
2017-08-26T03:22:38.460Z,100054.47
2017-08-26T03:25:04.589Z,100049.98
2017-08-26T03:27:30.717Z,100045.31
2017-08-26T03:29:56.830Z,100038.29
2017-08-26T03:32:22.923Z,100036.73
2017-08-26T03:34:49.031Z,100033.50
2017-08-26T03:37:15.151Z,100033.16
2017-08-26T03:39:41.276Z,100028.62
2017-08-26T03:42:07.436Z,100041.91
2017-08-26T03:44:33.510Z,100049.80
2017-08-26T03:46:59.645Z,100038.66
2017-08-26T03:49:25.776Z,100039.88
2017-08-26T03:51:51.854Z,100032.62
2017-08-26T03:54:24.715Z,100041.61
2017-08-26T03:56:50.791Z,100047.45
2017-08-26T03:59:16.929Z,100053.87
2017-08-26T04:01:43.028Z,100050.56
2017-08-26T04:04:09.101Z,100057.83
2017-08-26T04:06:35.177Z,100060.73
2017-08-26T04:09:01.273Z,100056.31
2017-08-26T04:11:27.343Z,100050.35
2017-08-26T04:13:53.411Z,100053.09
2017-08-26T04:16:19.502Z,100054.34
2017-08-26T04:18:45.603Z,100065.73
2017-08-26T04:21:11.779Z,100070.19
2017-08-26T04:23:37.884Z,100062.04
2017-08-26T04:26:03.974Z,100044.97
2017-08-26T04:28:30.118Z,100034.20
2017-08-26T04:30:56.185Z,100047.12
2017-08-26T04:33:22.291Z,100056.61
2017-08-26T04:35:48.376Z,100068.34
2017-08-26T04:38:14.467Z,100064.90
2017-08-26T04:40:40.605Z,100065.48
2017-08-26T04:43:06.731Z,100053.70
2017-08-26T04:45:32.858Z,100050.19
2017-08-26T04:47:58.945Z,100056.28
2017-08-26T04:50:25.097Z,100068.09
2017-08-26T04:52:51.199Z,100069.80
2017-08-26T04:55:17.317Z,100068.61
2017-08-26T04:57:43.415Z,100069.48
2017-08-26T05:00:09.501Z,100068.41
2017-08-26T05:02:35.587Z,100061.06
2017-08-26T05:05:01.743Z,100065.39
2017-08-26T05:07:27.819Z,100056.29
2017-08-26T05:09:53.896Z,100057.52
2017-08-26T05:12:20.010Z,100056.56
2017-08-26T05:14:46.063Z,100054.78
2017-08-26T05:17:12.167Z,100058.22
2017-08-26T05:19:38.275Z,100062.27
2017-08-26T05:22:04.347Z,100058.53
2017-08-26T05:24:30.387Z,100058.60
2017-08-26T05:26:56.542Z,100054.71
2017-08-26T05:29:22.605Z,100056.73
2017-08-26T05:31:48.681Z,100062.36
2017-08-26T05:34:14.763Z,100066.55
2017-08-26T05:36:41.153Z,100067.91
2017-08-26T05:39:07.285Z,100070.28
2017-08-26T05:41:33.416Z,100066.41
2017-08-26T05:43:59.483Z,100050.45
2017-08-26T05:46:25.584Z,100039.25
2017-08-26T05:48:51.723Z,100031.88
2017-08-26T05:51:17.817Z,100020.84
2017-08-26T05:53:44.411Z,100018.55
2017-08-26T05:56:10.536Z,100018.88
2017-08-26T05:58:36.665Z,100016.97
2017-08-26T06:01:02.733Z,100016.91
2017-08-26T06:03:28.870Z,100016.19
2017-08-26T06:05:54.986Z,100017.09
2017-08-26T06:08:21.110Z,100022.72
2017-08-26T06:10:47.331Z,100019.31
2017-08-26T06:13:13.799Z,100015.05
2017-08-26T06:15:39.934Z,100008.70
2017-08-26T06:18:06.070Z,100010.55
2017-08-26T06:20:32.132Z,100020.84
2017-08-26T06:22:58.260Z,100039.58
2017-08-26T06:25:24.363Z,100062.80
2017-08-26T06:27:50.456Z,100068.74
2017-08-26T06:30:16.881Z,100067.59
2017-08-26T06:32:43.149Z,100075.09
2017-08-26T06:35:09.240Z,100080.70
2017-08-26T06:37:35.377Z,100065.38
2017-08-26T06:40:01.519Z,100061.30
2017-08-26T06:42:27.589Z,100066.90
2017-08-26T06:44:53.669Z,100058.81
2017-08-26T06:47:19.754Z,100060.17
2017-08-26T06:49:45.858Z,100060.22
2017-08-26T06:52:12.011Z,100066.06
2017-08-26T06:54:38.159Z,100068.55
2017-08-26T06:57:04.279Z,100058.69
2017-08-26T06:59:30.365Z,100041.88
2017-08-26T07:01:56.442Z,100038.59
2017-08-26T07:04:22.586Z,100036.95
2017-08-26T07:06:48.666Z,100035.16
2017-08-26T07:09:14.776Z,100036.97
2017-08-26T07:11:40.868Z,100034.44
2017-08-26T07:14:06.948Z,100044.11
2017-08-26T07:16:33.077Z,100031.23
2017-08-26T07:18:59.190Z,100024.98
2017-08-26T07:21:25.324Z,100028.05
2017-08-26T07:23:51.582Z,100038.11
2017-08-26T07:26:17.736Z,100035.77
2017-08-26T07:28:43.808Z,100044.47
2017-08-26T07:31:09.909Z,100050.75
2017-08-26T07:33:36.024Z,100055.41
2017-08-26T07:36:02.156Z,100055.32
2017-08-26T07:38:28.272Z,100066.78
2017-08-26T07:40:54.362Z,100065.53
2017-08-26T07:43:20.442Z,100069.53
2017-08-26T07:45:46.540Z,100071.59
2017-08-26T07:48:12.656Z,100071.24
2017-08-26T07:50:38.770Z,100073.88
2017-08-26T07:53:04.858Z,100066.11
2017-08-26T07:55:30.949Z,100059.16
2017-08-26T07:57:57.123Z,100064.95
2017-08-26T08:00:23.217Z,100061.47
2017-08-26T08:02:56.379Z,100072.45
2017-08-26T08:05:22.501Z,100074.32
2017-08-26T08:07:48.596Z,100070.76
2017-08-26T08:10:14.823Z,100057.74
2017-08-26T08:12:40.951Z,100062.31
2017-08-26T08:15:07.075Z,100071.02
2017-08-26T08:17:33.195Z,100080.91
2017-08-26T08:19:59.401Z,100101.57
2017-08-26T08:22:25.499Z,100089.69
2017-08-26T08:24:51.650Z,100088.80
2017-08-26T08:27:17.775Z,100094.66
2017-08-26T08:29:44.898Z,100092.08
2017-08-26T08:32:11.008Z,100104.55
2017-08-26T08:34:37.109Z,100101.57
2017-08-26T08:37:03.912Z,100101.27
2017-08-26T08:39:30.037Z,100104.72
2017-08-26T08:41:56.542Z,100098.53
2017-08-26T08:44:22.775Z,100105.64
2017-08-26T08:46:48.874Z,100115.91
2017-08-26T08:49:15.015Z,100116.16
2017-08-26T08:51:41.184Z,100107.61
2017-08-26T08:54:07.339Z,100114.91
2017-08-26T08:56:33.463Z,100112.90
2017-08-26T08:58:59.565Z,100108.56
2017-08-26T09:01:25.663Z,100102.81
2017-08-26T09:03:51.760Z,100099.74
2017-08-26T09:06:18.527Z,100091.70
2017-08-26T09:08:44.642Z,100089.33
2017-08-26T09:11:10.766Z,100080.09
2017-08-26T09:13:36.930Z,100077.38
2017-08-26T09:16:03.270Z,100076.33
2017-08-26T09:18:29.438Z,100079.70
2017-08-26T09:20:55.548Z,100070.73
2017-08-26T09:23:21.664Z,100071.41
2017-08-26T09:25:47.800Z,100072.50
2017-08-26T09:28:14.022Z,100078.19
2017-08-26T09:30:40.105Z,100074.73
2017-08-26T09:33:06.224Z,100056.68
2017-08-26T09:35:32.384Z,100051.95
2017-08-26T09:37:58.496Z,100051.36
2017-08-26T09:40:24.592Z,100067.66
2017-08-26T09:42:50.856Z,100067.67
2017-08-26T09:45:17.191Z,100063.19
2017-08-26T09:47:43.453Z,100066.35
2017-08-26T09:50:09.614Z,100070.52
2017-08-26T09:52:35.700Z,100070.30
2017-08-26T09:55:01.809Z,100071.67
2017-08-26T09:57:27.977Z,100072.47
2017-08-26T09:59:54.084Z,100065.92
2017-08-26T10:02:20.172Z,100044.02
2017-08-26T10:04:46.301Z,100039.26
2017-08-26T10:07:19.572Z,100047.42
2017-08-26T10:09:45.687Z,100048.33
2017-08-26T10:12:11.816Z,100046.73
2017-08-26T10:14:37.883Z,100046.88
2017-08-26T10:17:04.010Z,100019.75
2017-08-26T10:19:30.099Z,100025.66
2017-08-26T10:21:56.199Z,100027.69
2017-08-26T10:24:22.296Z,100025.59
2017-08-26T10:26:48.408Z,100032.50
2017-08-26T10:29:14.531Z,100026.79
2017-08-26T10:31:40.681Z,100021.94
2017-08-26T10:34:06.764Z,100017.99
2017-08-26T10:36:32.864Z,100013.25
2017-08-26T10:38:58.994Z,100015.80
2017-08-26T10:41:25.084Z,100020.10
2017-08-26T10:43:52.074Z,100046.37
2017-08-26T10:46:18.253Z,100046.78
2017-08-26T10:48:44.354Z,100055.08
2017-08-26T10:51:10.463Z,100081.25
2017-08-26T10:53:36.577Z,100077.25
2017-08-26T10:56:02.663Z,100072.99
2017-08-26T10:58:28.827Z,100058.48
2017-08-26T11:00:54.940Z,100026.83
2017-08-26T11:03:21.067Z,100011.34
2017-08-26T11:05:47.247Z,100000.89
2017-08-26T11:08:13.369Z,99998.17
2017-08-26T11:10:39.569Z,100001.78
2017-08-26T11:13:05.845Z,100005.13
2017-08-26T11:15:31.984Z,99999.86
2017-08-26T11:17:58.037Z,100005.28
2017-08-26T11:20:24.204Z,100005.84
2017-08-26T11:22:50.274Z,99994.26
2017-08-26T11:25:16.407Z,99990.88
2017-08-26T11:27:42.537Z,99985.41
2017-08-26T11:30:08.609Z,99988.02
2017-08-26T11:32:34.684Z,99990.64
2017-08-26T11:35:00.754Z,99974.78
2017-08-26T11:37:26.834Z,99973.16
2017-08-26T11:39:52.950Z,99971.33
2017-08-26T11:42:19.068Z,99979.88
2017-08-26T11:44:45.149Z,99967.88
2017-08-26T11:47:11.241Z,99964.23
2017-08-26T11:49:37.337Z,99959.09
2017-08-26T11:52:03.407Z,99952.67
2017-08-26T11:54:29.494Z,99961.63
2017-08-26T11:56:55.580Z,99957.28
2017-08-26T11:59:21.658Z,99959.75
2017-08-26T12:01:47.742Z,99958.00
2017-08-26T12:04:13.824Z,99960.35
2017-08-26T12:06:40.436Z,99955.41
2017-08-26T12:09:06.561Z,99950.25
2017-08-26T12:11:32.616Z,99957.72
2017-08-26T12:13:58.682Z,99956.16
2017-08-26T12:16:24.770Z,99951.23
2017-08-26T12:18:50.864Z,99959.92
2017-08-26T12:21:18.006Z,99953.67
2017-08-26T12:23:44.110Z,99955.28
2017-08-26T12:26:10.214Z,99953.10
2017-08-26T12:28:36.273Z,99940.09
2017-08-26T12:31:02.354Z,99942.78
2017-08-26T12:33:28.751Z,99938.80
2017-08-26T12:35:54.838Z,99936.17
2017-08-26T12:38:20.962Z,99939.85
2017-08-26T12:40:47.126Z,99934.66
2017-08-26T12:43:13.234Z,99933.33
2017-08-26T12:45:39.365Z,99932.55
2017-08-26T12:48:05.509Z,99925.08
2017-08-26T12:50:31.640Z,99925.87
2017-08-26T12:52:57.739Z,99924.37
2017-08-26T12:55:23.902Z,99931.69
2017-08-26T12:57:50.085Z,99922.07
2017-08-26T13:00:16.286Z,99920.70
2017-08-26T13:02:42.402Z,99918.62
2017-08-26T13:05:08.500Z,99910.40
2017-08-26T13:07:34.649Z,99915.59
2017-08-26T13:10:00.818Z,99912.11
2017-08-26T13:12:27.012Z,99912.28
2017-08-26T13:14:53.121Z,99914.81
2017-08-26T13:17:19.233Z,99913.64
2017-08-26T13:19:45.389Z,99912.94
2017-08-26T13:22:11.486Z,99906.83
2017-08-26T13:24:37.618Z,99904.98
2017-08-26T13:27:03.827Z,99898.62
2017-08-26T13:29:29.926Z,99893.85
2017-08-26T13:31:56.075Z,99886.61
2017-08-26T13:34:22.197Z,99894.70
2017-08-26T13:36:48.293Z,99886.33
2017-08-26T13:39:14.418Z,99889.17
2017-08-26T13:41:40.528Z,99888.20
2017-08-26T13:44:06.641Z,99884.82
2017-08-26T13:46:32.831Z,99883.12
2017-08-26T13:48:58.949Z,99884.50
2017-08-26T13:51:25.021Z,99876.92
2017-08-26T13:53:51.145Z,99877.80
2017-08-26T13:56:17.257Z,99874.66
2017-08-26T13:58:43.549Z,99881.14
2017-08-26T14:01:09.654Z,99871.09
2017-08-26T14:03:35.757Z,99865.15
2017-08-26T14:06:01.879Z,99868.69
2017-08-26T14:08:27.944Z,99867.32
2017-08-26T14:10:54.917Z,99863.23
2017-08-26T14:13:21.042Z,99863.17
2017-08-26T14:15:47.175Z,99859.94
2017-08-26T14:18:13.461Z,99857.19
2017-08-26T14:20:39.584Z,99851.70
2017-08-26T14:23:05.681Z,99848.16
2017-08-26T14:25:31.807Z,99839.61
2017-08-26T14:27:57.994Z,99846.48
2017-08-26T14:30:24.111Z,99837.15
2017-08-26T14:32:50.214Z,99842.39
2017-08-26T14:35:16.335Z,99836.97
2017-08-26T14:37:42.431Z,99831.94
2017-08-26T14:40:08.540Z,99830.64
2017-08-26T14:42:34.657Z,99828.27
2017-08-26T14:45:00.735Z,99823.63
2017-08-26T14:47:26.890Z,99820.70
2017-08-26T14:49:53.039Z,99820.31
2017-08-26T14:52:19.113Z,99818.53
2017-08-26T14:54:45.249Z,99826.19
2017-08-26T14:57:11.345Z,99813.46
2017-08-26T14:59:37.442Z,99818.27
2017-08-26T15:02:03.590Z,99813.45
2017-08-26T15:04:29.769Z,99803.38
2017-08-26T15:06:56.252Z,99803.00
2017-08-26T15:09:22.591Z,99799.16
2017-08-26T15:11:48.773Z,99799.66
2017-08-26T15:14:14.960Z,99793.35
2017-08-26T15:16:41.068Z,99791.16
2017-08-26T15:19:07.291Z,99786.59
2017-08-26T15:21:33.589Z,99776.95
2017-08-26T15:24:00.116Z,99777.86
2017-08-26T15:26:26.388Z,99777.17
2017-08-26T15:28:52.554Z,99768.08
2017-08-26T15:31:18.910Z,99769.75
2017-08-26T15:33:45.102Z,99768.33
2017-08-26T15:36:11.241Z,99770.90
2017-08-26T15:38:37.402Z,99762.97
2017-08-26T15:41:03.524Z,99763.72
2017-08-26T15:43:29.625Z,99763.59
2017-08-26T15:45:55.912Z,99765.17
2017-08-26T15:48:22.018Z,99762.72
2017-08-26T15:50:48.100Z,99756.75
2017-08-26T15:53:14.245Z,99754.55
2017-08-26T15:55:47.370Z,99746.78
2017-08-26T15:58:13.457Z,99732.88
2017-08-26T16:03:12.576Z,99724.78
2017-08-26T16:05:38.679Z,99727.69
2017-08-26T16:08:04.782Z,99726.57
2017-08-26T16:10:30.912Z,99716.38
2017-08-26T16:12:57.044Z,99714.65
2017-08-26T16:15:23.192Z,99710.22
2017-08-26T16:17:49.344Z,99703.48
2017-08-26T16:20:15.440Z,99704.09
2017-08-26T16:22:41.565Z,99693.25
2017-08-26T16:25:07.671Z,99689.98
2017-08-26T16:27:33.762Z,99690.27
2017-08-26T16:29:59.888Z,99694.55
2017-08-26T16:32:26.017Z,99686.69
2017-08-26T16:34:52.195Z,99681.75
2017-08-26T16:37:18.368Z,99673.05
2017-08-26T16:39:44.476Z,99670.80
2017-08-26T16:42:10.567Z,99674.84
2017-08-26T16:44:36.723Z,99677.59
2017-08-26T16:47:02.803Z,99679.72
2017-08-26T16:49:28.948Z,99671.67
2017-08-26T16:51:55.057Z,99671.80
2017-08-26T16:54:21.157Z,99667.47
2017-08-26T16:56:47.326Z,99670.48
2017-08-26T16:59:13.413Z,99669.64
2017-08-26T17:01:39.502Z,99661.83
2017-08-26T17:04:05.609Z,99662.12
2017-08-26T17:06:31.969Z,99670.61
2017-08-26T17:08:58.090Z,99675.82
2017-08-26T17:11:24.179Z,99673.05
2017-08-26T17:13:50.338Z,99672.24
2017-08-26T17:16:16.425Z,99669.91
2017-08-26T17:18:42.573Z,99663.73
2017-08-26T17:21:08.696Z,99663.88
2017-08-26T17:23:34.805Z,99668.09
2017-08-26T17:26:00.946Z,99666.86
2017-08-26T17:28:27.093Z,99665.90
2017-08-26T17:30:53.199Z,99668.89
2017-08-26T17:33:20.245Z,99652.84
2017-08-26T17:35:46.363Z,99640.70
2017-08-26T17:38:12.473Z,99643.31
2017-08-26T17:40:38.589Z,99635.62
2017-08-26T17:43:04.673Z,99633.72
2017-08-26T17:45:30.754Z,99635.76
2017-08-26T17:47:56.891Z,99639.38
2017-08-26T17:50:23.656Z,99651.97
2017-08-26T17:52:49.779Z,99656.74
2017-08-26T17:55:15.869Z,99649.75
2017-08-26T17:57:41.985Z,99639.05
2017-08-26T18:00:08.077Z,99629.34
2017-08-26T18:02:34.420Z,99632.00
2017-08-26T18:05:00.502Z,99645.43
2017-08-26T18:07:26.613Z,99656.48
2017-08-26T18:09:52.784Z,99656.52
2017-08-26T18:12:18.874Z,99643.09
2017-08-26T18:14:44.964Z,99640.67
2017-08-26T18:17:11.127Z,99634.77
2017-08-26T18:19:37.245Z,99633.20
2017-08-26T18:22:03.339Z,99652.33
2017-08-26T18:24:29.506Z,99688.81
2017-08-26T18:26:55.583Z,99681.87
2017-08-26T18:29:21.715Z,99657.01
2017-08-26T18:31:48.132Z,99673.01
2017-08-26T18:34:14.225Z,99687.18
2017-08-26T18:36:40.328Z,99683.81
2017-08-26T18:39:06.536Z,99678.80
2017-08-26T18:41:32.736Z,99686.63
2017-08-26T18:43:58.879Z,99690.59
2017-08-26T18:46:24.986Z,99700.16
2017-08-26T18:48:51.060Z,99709.84
2017-08-26T18:51:18.053Z,99709.84
2017-08-26T18:53:44.180Z,99717.33
2017-08-26T18:56:10.581Z,99715.88
2017-08-26T18:58:36.855Z,99713.48
2017-08-26T19:01:02.962Z,99721.97
2017-08-26T19:03:29.063Z,99730.22
2017-08-26T19:05:55.191Z,99730.45
2017-08-26T19:08:21.333Z,99737.47
2017-08-26T19:10:47.457Z,99731.60
2017-08-26T19:13:13.576Z,99729.48
2017-08-26T19:15:39.668Z,99728.56
2017-08-26T19:18:05.751Z,99733.81
2017-08-26T19:20:31.849Z,99736.59
2017-08-26T19:22:57.981Z,99737.83
2017-08-26T19:25:24.126Z,99741.98
2017-08-26T19:27:50.329Z,99751.20
2017-08-26T19:30:16.448Z,99753.39
2017-08-26T19:32:42.585Z,99755.47
2017-08-26T19:35:08.676Z,99753.41
2017-08-26T19:37:34.775Z,99757.27
2017-08-26T19:40:00.872Z,99769.41
2017-08-26T19:42:27.009Z,99767.91
2017-08-26T19:44:53.461Z,99762.13
2017-08-26T19:47:19.547Z,99756.45
2017-08-26T19:49:45.751Z,99752.56
2017-08-26T19:52:11.861Z,99752.70
2017-08-26T19:54:37.940Z,99753.02
2017-08-26T19:57:04.108Z,99750.60
2017-08-26T19:59:30.193Z,99748.75
2017-08-26T20:01:57.180Z,99748.80
2017-08-26T20:04:23.327Z,99746.34
2017-08-26T20:06:49.449Z,99744.97
2017-08-26T20:09:15.573Z,99746.22
2017-08-26T20:11:41.707Z,99740.45
2017-08-26T20:14:07.910Z,99743.33
2017-08-26T20:16:33.994Z,99744.64
2017-08-26T20:19:00.080Z,99737.73
2017-08-26T20:21:26.192Z,99744.27
2017-08-26T20:23:52.265Z,99747.36
2017-08-26T20:26:18.375Z,99744.23
2017-08-26T20:28:44.488Z,99738.43
2017-08-26T20:31:10.629Z,99739.75
2017-08-26T20:33:36.772Z,99739.64
2017-08-26T20:36:03.038Z,99743.47
2017-08-26T20:38:29.153Z,99754.09
2017-08-26T20:40:55.253Z,99764.72
2017-08-26T20:43:21.394Z,99766.44
2017-08-26T20:45:47.468Z,99793.64
2017-08-26T20:48:13.642Z,99808.23
2017-08-26T20:50:39.794Z,99802.11
2017-08-26T20:53:05.917Z,99801.27
2017-08-26T20:55:32.293Z,99791.92
2017-08-26T20:57:58.498Z,99771.66
2017-08-26T21:00:24.576Z,99742.63
2017-08-26T21:02:50.726Z,99742.55
2017-08-26T21:05:16.827Z,99748.71
2017-08-26T21:07:43.087Z,99747.41
2017-08-26T21:10:09.176Z,99752.42
2017-08-26T21:12:35.281Z,99750.07
2017-08-26T21:15:01.408Z,99752.17
2017-08-26T21:17:27.646Z,99754.70
2017-08-26T21:19:53.902Z,99762.44
2017-08-26T21:22:20.042Z,99754.83
2017-08-26T21:24:46.152Z,99755.38
2017-08-26T21:27:12.265Z,99755.80
2017-08-26T21:29:38.405Z,99747.44
2017-08-26T21:32:04.518Z,99745.30
2017-08-26T21:34:30.652Z,99741.89
2017-08-26T21:36:57.014Z,99739.15
2017-08-26T21:39:23.134Z,99737.86
2017-08-26T21:41:49.413Z,99734.92
2017-08-26T21:44:15.682Z,99741.73
2017-08-26T21:46:41.799Z,99741.28
2017-08-26T21:49:07.892Z,99735.69
2017-08-26T21:51:33.995Z,99738.68
2017-08-26T21:54:00.077Z,99738.09
2017-08-26T21:56:26.167Z,99746.36
2017-08-26T21:58:52.248Z,99737.49
2017-08-26T22:01:18.363Z,99740.23
2017-08-26T22:03:44.461Z,99735.06
2017-08-26T22:06:10.575Z,99735.75
2017-08-26T22:08:36.721Z,99735.38
2017-08-26T22:11:02.825Z,99742.11
2017-08-26T22:13:28.918Z,99738.00
2017-08-26T22:15:55.054Z,99744.33
2017-08-26T22:18:21.131Z,99743.25
2017-08-26T22:20:47.255Z,99745.53
2017-08-26T22:23:13.324Z,99744.59
2017-08-26T22:25:39.435Z,99740.35
2017-08-26T22:28:05.533Z,99742.41
2017-08-26T22:30:31.699Z,99738.09
2017-08-26T22:32:57.823Z,99742.57
2017-08-26T22:35:23.945Z,99741.61
2017-08-26T22:37:50.029Z,99737.05
2017-08-26T22:40:16.131Z,99743.69
2017-08-26T22:42:42.209Z,99743.66
2017-08-26T22:45:08.311Z,99746.53
2017-08-26T22:47:34.390Z,99748.71
2017-08-26T22:50:00.563Z,99754.67
2017-08-26T22:52:26.709Z,99755.19
2017-08-26T22:54:52.828Z,99745.22
2017-08-26T22:57:18.947Z,99746.11
2017-08-26T22:59:45.017Z,99743.30
2017-08-26T23:02:11.153Z,99744.38
2017-08-26T23:04:37.247Z,99741.92
2017-08-26T23:07:15.597Z,99742.76
2017-08-26T23:09:41.697Z,99745.09
2017-08-26T23:12:07.753Z,99742.09
2017-08-26T23:14:33.856Z,99739.27
2017-08-26T23:16:59.979Z,99738.70
2017-08-26T23:19:26.051Z,99740.23
2017-08-26T23:21:52.155Z,99737.01
2017-08-26T23:24:18.241Z,99741.70
2017-08-26T23:26:44.351Z,99737.86
2017-08-26T23:29:10.459Z,99742.86
2017-08-26T23:31:36.517Z,99742.52
2017-08-26T23:34:02.633Z,99738.59
2017-08-26T23:36:28.696Z,99739.00
2017-08-26T23:38:54.787Z,99738.03
2017-08-26T23:41:20.888Z,99730.05
2017-08-26T23:43:46.969Z,99731.57
2017-08-26T23:46:13.047Z,99723.29
2017-08-26T23:48:39.173Z,99726.56
2017-08-26T23:51:05.241Z,99722.62
2017-08-26T23:53:31.482Z,99725.74
2017-08-26T23:55:57.599Z,99728.73
2017-08-26T23:58:23.699Z,99724.48
